Santorini/Thira Airport

Airport
ICAO code: 
LGSR
IATA Code: 
JTR
Summary
ICAO Region: 
EUR
Territory: 
Location: 
Kamari, Cyclades
Serving: 
Thira/Santorini
Elevation: 
127 ft
Coordinates: 
Aerial View: 
36° 24' 6" N, 25° 28' 42" E
Airport CFIT: 
Runway Visual Perspective
Airport WX: 
Low Level Turbulence
Metar
Observation
LGSR 181320Z 35022KT 9999 SCT025 12/04 Q1021
Station
Santorini Island
Date/Time
2022-01-18 13:20:00
Wind direction
350°
Wind speed
22 kts
Lowest cloud amount
scattered clouds
Temperature
12°C
Dew point
4°C
Humidity
58%
QNH
1021 hPa
Weather condition
n/a

Description

International airport on the island of Santorini, Greece.

Climatology

Mediterranean climate (Köppen climate classification Csa) - Hot, dry summer and a mild wet winter.

Runways

Designator Length Width Surface Rops
16R/34L 0 0 UNK Yes/Yes
16L/34R 2125 30 ASP Yes/Yes
Airport map: 
Aerial View: 

SKYbrary Partners:

Safety knowledge contributed by: